Iota, Louisiana
Current Conditions -  °F | °C
As of 5:15 PM on Wednesday 22 Oct 2014 (Local Time) from K3R7 Reporting Station
Clear Clear  
Wind Chill: 77°   Ceiling: Unl
Heat Index: 79°   Visibility: 10mi
Dew Point: 55°   Wind: 8mph
Humidity: 46%   Direction: 10°N
Pressure: 30.03"   Gusts: NA
Location:  30.33°N, 92.5°W
Report Text: K3R7 222215Z AUTO 01007KT 10SM CLR 25/13 A3003 RMK AO2 T02510126
Loading
Personal Weather Stations






























Interactive Weather Map
Tropical Storm Tracking
New forecast layout! Learn more

10-Day Weather Forecast

Advertisements
Track Severe Weather on mobile